createdAt,value
2024-05-09T00:01:06.614Z,1.30
2024-05-09T00:03:37.105Z,1.40
2024-05-09T00:06:10.344Z,1.40
2024-05-09T00:08:40.799Z,1.40
2024-05-09T00:11:14.742Z,1.50
2024-05-09T00:13:45.610Z,1.30
2024-05-09T00:16:16.269Z,1.40
2024-05-09T00:18:46.646Z,1.20
2024-05-09T00:21:17.164Z,1.20
2024-05-09T00:23:47.496Z,1.10
2024-05-09T00:26:18.987Z,1.20
2024-05-09T00:28:49.283Z,1.20
2024-05-09T00:31:19.823Z,1.40
2024-05-09T00:33:50.172Z,1.40
2024-05-09T00:36:20.744Z,1.20
2024-05-09T00:38:51.630Z,1.40
2024-05-09T00:41:21.932Z,1.70
2024-05-09T00:43:52.424Z,1.50
2024-05-09T00:46:23.054Z,1.40
2024-05-09T00:48:53.708Z,1.50
2024-05-09T00:51:24.470Z,1.70
2024-05-09T00:53:55.676Z,1.40
2024-05-09T00:56:26.303Z,1.40
2024-05-09T00:58:57.452Z,1.40
2024-05-09T01:01:28.952Z,1.30
2024-05-09T01:04:00.111Z,1.50
2024-05-09T01:06:31.541Z,1.40
2024-05-09T01:09:01.860Z,1.50
2024-05-09T01:11:38.844Z,1.30
2024-05-09T01:14:09.609Z,1.40
2024-05-09T01:16:41.133Z,1.40
2024-05-09T01:19:16.181Z,1.30
2024-05-09T01:21:47.155Z,1.40
2024-05-09T01:24:17.860Z,1.30
2024-05-09T01:26:48.261Z,1.40
2024-05-09T01:29:19.023Z,1.50
2024-05-09T01:31:52.023Z,1.40
2024-05-09T01:34:22.649Z,1.30
2024-05-09T01:36:53.286Z,1.30
2024-05-09T01:39:23.899Z,1.40
2024-05-09T01:41:54.421Z,1.20
2024-05-09T01:44:24.875Z,1.30
2024-05-09T01:46:55.723Z,1.10
2024-05-09T01:49:26.574Z,1.20
2024-05-09T01:51:57.157Z,1.20
2024-05-09T01:54:27.912Z,1.20
2024-05-09T01:56:58.839Z,1.20
2024-05-09T01:59:29.252Z,1.20
2024-05-09T02:01:59.891Z,1.10
2024-05-09T02:04:30.719Z,1.20
2024-05-09T02:07:01.326Z,1.30
2024-05-09T02:09:31.917Z,1.30
2024-05-09T02:12:02.354Z,1.20
2024-05-09T02:14:32.968Z,1.30
2024-05-09T02:17:03.559Z,1.20
2024-05-09T02:19:34.452Z,1.20
2024-05-09T02:22:05.097Z,1.30
2024-05-09T02:24:35.876Z,1.20
2024-05-09T02:27:06.967Z,1.20
2024-05-09T02:29:37.906Z,1.20
2024-05-09T02:32:09.469Z,1.30
2024-05-09T02:34:39.957Z,1.50
2024-05-09T02:37:10.458Z,1.30
2024-05-09T02:39:40.894Z,1.30
2024-05-09T02:42:11.612Z,1.20
2024-05-09T02:44:42.085Z,1.30
2024-05-09T02:47:12.807Z,1.30
2024-05-09T02:49:43.660Z,1.20
2024-05-09T02:52:17.700Z,1.40
2024-05-09T02:54:48.185Z,1.20
2024-05-09T02:57:18.990Z,1.30
2024-05-09T02:59:49.944Z,1.20
2024-05-09T03:02:20.382Z,1.30
2024-05-09T03:04:50.834Z,1.20
2024-05-09T03:07:21.208Z,1.30
2024-05-09T03:09:51.814Z,1.50
2024-05-09T03:12:22.165Z,1.20
2024-05-09T03:14:53.482Z,1.30
2024-05-09T03:17:24.672Z,1.10
2024-05-09T03:19:55.484Z,1.20
2024-05-09T03:22:26.589Z,1.20
2024-05-09T03:24:57.248Z,1.30
2024-05-09T03:27:27.682Z,1.00
2024-05-09T03:29:58.340Z,0.90
2024-05-09T03:32:28.762Z,0.90
2024-05-09T03:34:59.291Z,1.00
2024-05-09T03:37:29.567Z,1.00
2024-05-09T03:40:00.006Z,0.80
2024-05-09T03:42:31.049Z,1.00
2024-05-09T03:45:01.302Z,0.90
2024-05-09T03:47:35.770Z,1.10
2024-05-09T03:50:14.934Z,1.10
2024-05-09T03:52:48.732Z,1.00
2024-05-09T03:55:19.005Z,1.10
2024-05-09T03:57:49.236Z,1.10
2024-05-09T04:00:30.048Z,1.00
2024-05-09T04:03:08.535Z,1.30
2024-05-09T04:05:43.696Z,1.20
2024-05-09T04:08:16.136Z,1.10
2024-05-09T04:10:48.395Z,1.10
2024-05-09T04:13:19.016Z,1.30
2024-05-09T04:15:49.800Z,1.30
2024-05-09T04:18:20.662Z,1.10
2024-05-09T04:20:51.172Z,1.10
2024-05-09T04:23:21.920Z,1.00
2024-05-09T04:25:52.761Z,1.20
2024-05-09T04:28:23.944Z,1.20
2024-05-09T04:30:54.409Z,1.20
2024-05-09T04:33:25.110Z,1.10
2024-05-09T04:35:55.752Z,1.30
2024-05-09T04:38:26.028Z,1.00
2024-05-09T04:40:56.580Z,1.00
2024-05-09T04:43:27.192Z,1.10
2024-05-09T04:45:57.587Z,1.10
2024-05-09T04:48:28.569Z,1.10
2024-05-09T04:50:59.428Z,1.10
2024-05-09T04:53:30.305Z,1.10
2024-05-09T04:56:00.762Z,1.20
2024-05-09T04:58:31.247Z,0.90
2024-05-09T05:01:02.229Z,1.00
2024-05-09T05:03:33.041Z,1.10
2024-05-09T05:06:03.654Z,1.10
2024-05-09T05:08:35.277Z,1.00
2024-05-09T05:11:06.198Z,1.00
2024-05-09T05:13:40.134Z,1.40
2024-05-09T05:16:12.162Z,1.20
2024-05-09T05:18:44.392Z,1.20
2024-05-09T05:21:15.178Z,1.40
2024-05-09T05:23:45.747Z,1.10
2024-05-09T05:26:20.117Z,1.10
2024-05-09T05:28:51.251Z,1.20
2024-05-09T05:31:22.489Z,1.10
2024-05-09T05:33:53.131Z,1.00
2024-05-09T05:36:23.653Z,1.30
2024-05-09T05:38:53.886Z,1.40
2024-05-09T05:41:24.397Z,1.40
2024-05-09T05:43:54.813Z,1.30
2024-05-09T05:46:25.269Z,1.50
2024-05-09T05:48:56.282Z,1.50
2024-05-09T05:51:26.797Z,1.60
2024-05-09T05:53:57.041Z,1.40
2024-05-09T05:56:28.600Z,1.50
2024-05-09T05:58:58.908Z,1.40
2024-05-09T06:01:29.523Z,1.80
2024-05-09T06:04:00.120Z,1.30
2024-05-09T06:06:30.646Z,1.50
2024-05-09T06:09:01.112Z,1.30
2024-05-09T06:11:31.814Z,1.40
2024-05-09T06:14:02.335Z,1.40
2024-05-09T06:16:33.274Z,1.90
2024-05-09T06:19:04.185Z,2.10
2024-05-09T06:21:34.707Z,2.20
2024-05-09T06:24:06.724Z,1.90
2024-05-09T06:26:37.279Z,2.10
2024-05-09T06:29:07.874Z,1.50
2024-05-09T06:31:42.490Z,1.50
2024-05-09T06:34:13.522Z,1.50
2024-05-09T06:36:43.950Z,1.60
2024-05-09T06:39:14.615Z,1.50
2024-05-09T06:41:44.982Z,1.70
2024-05-09T06:44:15.788Z,1.60
2024-05-09T06:46:46.991Z,1.90
2024-05-09T06:49:17.792Z,3.20
2024-05-09T06:51:48.711Z,3.60
2024-05-09T06:54:19.320Z,4.40
2024-05-09T06:56:49.692Z,3.20
2024-05-09T06:59:20.389Z,3.50
2024-05-09T07:01:51.030Z,3.10
2024-05-09T07:04:21.410Z,2.20
2024-05-09T07:06:52.018Z,2.20
2024-05-09T07:09:22.387Z,2.90
2024-05-09T07:11:52.981Z,2.30
2024-05-09T07:14:23.608Z,2.00
2024-05-09T07:16:54.271Z,2.00
2024-05-09T07:19:25.688Z,2.10
2024-05-09T07:21:56.260Z,1.80
2024-05-09T07:24:26.789Z,1.60
2024-05-09T07:26:57.636Z,1.70
2024-05-09T07:29:28.061Z,1.60
2024-05-09T07:31:58.702Z,1.60
2024-05-09T07:34:29.257Z,1.60
2024-05-09T07:36:59.490Z,1.40
2024-05-09T07:39:30.307Z,1.60
2024-05-09T07:42:00.636Z,1.50
2024-05-09T07:44:31.561Z,1.40
2024-05-09T07:54:44.358Z,1.90
2024-05-09T07:57:15.393Z,2.00
2024-05-09T07:59:46.110Z,1.90
2024-05-09T08:02:16.960Z,2.00
2024-05-09T08:04:47.670Z,2.00
2024-05-09T08:07:18.897Z,1.90
2024-05-09T08:09:49.444Z,1.90
2024-05-09T08:12:23.026Z,1.90
2024-05-09T08:14:55.203Z,2.00
2024-05-09T08:17:25.559Z,2.20
2024-05-09T08:19:56.340Z,2.00
2024-05-09T08:22:26.836Z,2.30
2024-05-09T08:24:57.428Z,2.00
2024-05-09T08:27:28.108Z,1.80
2024-05-09T08:29:58.473Z,1.60
2024-05-09T08:32:32.082Z,1.90
2024-05-09T08:35:02.756Z,1.90
2024-05-09T08:37:37.924Z,1.90
2024-05-09T08:40:23.508Z,2.00
2024-05-09T08:43:01.059Z,2.20
2024-05-09T08:45:33.691Z,2.00
2024-05-09T08:48:07.457Z,2.00
2024-05-09T08:50:41.164Z,2.40
2024-05-09T08:53:11.976Z,2.10
2024-05-09T08:55:44.049Z,1.90
2024-05-09T08:58:19.042Z,2.10
2024-05-09T09:00:50.131Z,2.00
2024-05-09T09:03:23.082Z,2.00
2024-05-09T09:05:59.640Z,2.10
2024-05-09T09:08:30.670Z,2.00
2024-05-09T09:11:01.723Z,2.00
2024-05-09T09:13:32.316Z,2.00
2024-05-09T09:16:03.456Z,2.10
2024-05-09T09:18:34.338Z,1.90
2024-05-09T09:21:06.056Z,2.20
2024-05-09T09:23:36.339Z,2.10
2024-05-09T09:26:07.138Z,2.20
2024-05-09T09:28:40.411Z,2.20
2024-05-09T09:31:10.862Z,2.10
2024-05-09T09:33:45.375Z,2.00
2024-05-09T09:36:18.348Z,2.10
2024-05-09T09:38:51.936Z,2.10
2024-05-09T09:41:27.109Z,2.00
2024-05-09T09:43:59.570Z,2.00
2024-05-09T09:46:31.655Z,2.00
2024-05-09T09:49:02.673Z,2.30
2024-05-09T09:51:34.548Z,2.30
2024-05-09T09:54:06.753Z,2.30
2024-05-09T09:56:39.796Z,2.30
2024-05-09T09:59:12.622Z,2.30
2024-05-09T10:01:44.664Z,2.30
2024-05-09T10:04:17.276Z,2.30
2024-05-09T10:06:51.354Z,2.30
2024-05-09T10:09:23.585Z,2.40
2024-05-09T10:11:59.855Z,2.60
2024-05-09T10:14:33.237Z,3.00
2024-05-09T10:17:08.008Z,3.20
2024-05-09T10:19:38.825Z,3.00
2024-05-09T10:22:09.700Z,3.00
2024-05-09T10:24:53.475Z,3.40
2024-05-09T10:27:29.656Z,2.80
2024-05-09T10:30:01.183Z,2.20
2024-05-09T10:32:38.851Z,3.10
2024-05-09T10:35:12.366Z,2.50
2024-05-09T10:37:43.263Z,2.90
2024-05-09T10:40:25.867Z,2.90
2024-05-09T10:43:03.380Z,2.40
2024-05-09T10:45:37.390Z,2.60
2024-05-09T10:48:09.800Z,2.80
2024-05-09T10:50:43.478Z,2.50
2024-05-09T10:53:13.883Z,2.20
2024-05-09T10:55:44.729Z,2.50
2024-05-09T10:58:19.903Z,2.50
2024-05-09T11:00:51.601Z,2.50
2024-05-09T11:03:23.682Z,2.60
2024-05-09T11:05:55.068Z,2.50
2024-05-09T11:08:26.133Z,2.50
2024-05-09T11:11:00.256Z,1.80
2024-05-09T11:13:32.040Z,1.60
2024-05-09T11:16:03.272Z,1.70
2024-05-09T11:18:37.909Z,2.10
2024-05-09T11:21:14.276Z,2.30
2024-05-09T11:23:44.877Z,2.20
2024-05-09T11:26:15.724Z,2.20
2024-05-09T11:28:47.402Z,2.40
2024-05-09T11:31:17.722Z,2.10
2024-05-09T11:33:48.240Z,2.10
2024-05-09T11:36:18.976Z,2.30
2024-05-09T11:38:49.661Z,2.20
2024-05-09T11:41:20.718Z,2.00
2024-05-09T11:43:51.170Z,2.10
2024-05-09T11:46:21.786Z,2.20
2024-05-09T11:48:52.764Z,2.00
2024-05-09T11:51:23.334Z,2.00
2024-05-09T11:53:53.870Z,2.20
2024-05-09T11:56:24.303Z,2.10
2024-05-09T11:58:54.769Z,2.10
2024-05-09T12:01:27.699Z,2.00
2024-05-09T12:03:58.474Z,2.10
2024-05-09T12:06:30.055Z,2.20
2024-05-09T12:09:01.017Z,2.00
2024-05-09T12:11:31.417Z,2.00
2024-05-09T12:14:01.794Z,2.00
2024-05-09T12:16:32.358Z,2.10
2024-05-09T12:19:03.608Z,2.00
2024-05-09T12:21:33.853Z,2.00
2024-05-09T12:24:04.348Z,2.00
2024-05-09T12:26:34.950Z,2.00
2024-05-09T12:29:05.154Z,2.30
2024-05-09T12:31:35.481Z,2.20
2024-05-09T12:34:05.907Z,2.00
2024-05-09T12:36:36.640Z,1.90
2024-05-09T12:39:09.144Z,2.00
2024-05-09T12:41:39.438Z,2.00
2024-05-09T12:44:09.677Z,2.00
2024-05-09T12:46:40.094Z,2.10
2024-05-09T12:49:11.443Z,2.00
2024-05-09T12:51:42.435Z,2.00
2024-05-09T12:54:12.682Z,2.10
2024-05-09T12:56:43.235Z,2.00
2024-05-09T12:59:13.450Z,2.00
2024-05-09T13:01:43.787Z,2.20
2024-05-09T13:04:14.351Z,2.10
2024-05-09T13:06:45.470Z,2.30
2024-05-09T13:09:16.011Z,2.00
2024-05-09T13:11:46.430Z,2.00
2024-05-09T13:14:16.933Z,2.10
2024-05-09T13:16:47.251Z,2.10
2024-05-09T13:19:18.103Z,2.30
2024-05-09T13:21:49.016Z,2.20
2024-05-09T13:24:19.473Z,2.20
2024-05-09T13:26:49.927Z,2.30
2024-05-09T13:29:20.186Z,2.40
2024-05-09T13:31:50.550Z,2.40
2024-05-09T13:34:20.856Z,2.30
2024-05-09T13:36:51.267Z,2.20
2024-05-09T13:39:21.572Z,2.20
2024-05-09T13:41:52.082Z,2.20
2024-05-09T13:44:22.505Z,2.30
2024-05-09T13:46:53.348Z,2.20
2024-05-09T13:49:23.914Z,2.40
2024-05-09T13:51:54.301Z,2.80
2024-05-09T13:54:24.993Z,2.80
2024-05-09T13:56:55.426Z,2.80
2024-05-09T13:59:25.663Z,2.60
2024-05-09T14:01:56.486Z,2.60
2024-05-09T14:04:27.306Z,2.80
2024-05-09T14:06:58.161Z,2.70
2024-05-09T14:09:30.478Z,2.40
2024-05-09T14:12:01.053Z,2.50
2024-05-09T14:14:31.577Z,2.40
2024-05-09T14:17:02.613Z,2.70
2024-05-09T14:19:33.035Z,2.70
2024-05-09T14:22:05.934Z,2.40
2024-05-09T14:24:36.698Z,2.50
2024-05-09T14:27:08.620Z,2.50
2024-05-09T14:29:38.847Z,2.50
2024-05-09T14:32:09.913Z,2.80
2024-05-09T14:34:40.703Z,2.60
2024-05-09T14:37:12.052Z,2.80
2024-05-09T14:39:42.306Z,2.40
2024-05-09T14:42:13.088Z,2.40
2024-05-09T14:44:43.384Z,2.70
2024-05-09T14:47:15.897Z,2.60
2024-05-09T14:49:46.616Z,2.50
2024-05-09T14:52:17.764Z,2.70
2024-05-09T14:54:51.303Z,2.50
2024-05-09T14:57:24.088Z,2.80
2024-05-09T14:59:54.436Z,2.60
2024-05-09T15:02:25.217Z,3.00
2024-05-09T15:04:55.766Z,2.70
2024-05-09T15:07:26.464Z,2.60
2024-05-09T15:10:00.254Z,2.70
2024-05-09T15:12:31.213Z,2.60
2024-05-09T15:15:01.445Z,2.60
2024-05-09T15:17:32.734Z,2.60
2024-05-09T15:20:09.074Z,2.50
2024-05-09T15:22:40.106Z,2.60
2024-05-09T15:25:12.121Z,2.50
2024-05-09T15:27:42.721Z,2.30
2024-05-09T15:30:15.571Z,2.20
2024-05-09T15:32:48.812Z,2.60
2024-05-09T15:35:19.404Z,2.70
2024-05-09T15:37:50.174Z,2.70
2024-05-09T15:40:30.550Z,2.30
2024-05-09T15:43:10.643Z,2.40
2024-05-09T15:45:42.406Z,2.20
2024-05-09T15:48:14.096Z,1.90
2024-05-09T15:50:44.824Z,1.50
2024-05-09T15:53:15.593Z,1.60
2024-05-09T15:55:46.298Z,1.50
2024-05-09T15:58:17.180Z,1.70
2024-05-09T16:00:49.657Z,1.90
2024-05-09T16:03:22.389Z,1.90
2024-05-09T16:05:53.352Z,1.40
2024-05-09T16:08:24.491Z,1.50
2024-05-09T16:10:55.273Z,1.40
2024-05-09T16:13:25.710Z,1.50
2024-05-09T16:15:56.229Z,1.50
2024-05-09T16:18:27.260Z,1.50
2024-05-09T16:21:00.135Z,1.40
2024-05-09T16:23:30.985Z,1.50
2024-05-09T16:26:01.487Z,1.50
2024-05-09T16:28:32.132Z,1.50
2024-05-09T16:31:02.429Z,1.40
2024-05-09T16:33:32.996Z,1.50
2024-05-09T16:36:03.559Z,1.40
2024-05-09T16:38:34.179Z,1.30
2024-05-09T16:41:04.846Z,1.40
2024-05-09T16:43:36.108Z,1.50
2024-05-09T16:46:08.729Z,1.30
2024-05-09T16:48:40.946Z,1.30
2024-05-09T16:51:12.084Z,1.50
2024-05-09T16:53:42.543Z,1.40
2024-05-09T16:56:13.656Z,1.30
2024-05-09T16:58:44.331Z,1.30
2024-05-09T17:01:14.983Z,1.40
2024-05-09T17:03:46.191Z,1.30
2024-05-09T17:06:17.148Z,1.20
2024-05-09T17:08:47.821Z,1.30
2024-05-09T17:11:20.213Z,1.60
2024-05-09T17:13:50.774Z,1.30
2024-05-09T17:16:21.837Z,1.30
2024-05-09T17:18:52.683Z,1.30
2024-05-09T17:21:23.086Z,1.40
2024-05-09T17:23:55.543Z,1.40
2024-05-09T17:26:25.853Z,1.30
2024-05-09T17:28:56.197Z,1.30
2024-05-09T17:31:27.069Z,1.40
2024-05-09T17:33:58.439Z,1.40
2024-05-09T17:36:28.918Z,1.30
2024-05-09T17:38:59.474Z,1.30
2024-05-09T17:41:29.675Z,1.30
2024-05-09T17:44:00.010Z,1.30
2024-05-09T17:46:30.534Z,1.40
2024-05-09T17:49:01.475Z,1.40
2024-05-09T17:51:32.893Z,1.50
2024-05-09T17:54:03.353Z,1.50
2024-05-09T17:56:33.892Z,1.40
2024-05-09T17:59:05.972Z,1.40
2024-05-09T18:01:37.666Z,1.30
2024-05-09T18:04:08.588Z,1.30
2024-05-09T18:06:39.691Z,1.30
2024-05-09T18:09:10.190Z,1.90
2024-05-09T18:11:40.847Z,1.40
2024-05-09T18:14:11.176Z,1.40
2024-05-09T18:16:41.676Z,1.40
2024-05-09T18:19:12.372Z,1.70
2024-05-09T18:21:42.901Z,1.90
2024-05-09T18:24:13.224Z,2.00
2024-05-09T18:26:43.923Z,2.00
2024-05-09T18:29:14.383Z,2.30
2024-05-09T18:31:44.651Z,2.10
2024-05-09T18:34:15.238Z,2.00
2024-05-09T18:36:46.522Z,2.00
2024-05-09T18:39:17.309Z,2.00
2024-05-09T18:41:47.457Z,2.10
2024-05-09T18:44:18.362Z,2.00
2024-05-09T18:46:48.761Z,1.90
2024-05-09T18:49:19.396Z,2.00
2024-05-09T18:51:49.944Z,1.80
2024-05-09T18:54:20.073Z,1.90
2024-05-09T18:56:50.177Z,1.80
2024-05-09T18:59:20.867Z,1.80
2024-05-09T19:01:52.287Z,1.80
2024-05-09T19:04:22.704Z,1.60
2024-05-09T19:06:53.232Z,1.60
2024-05-09T19:09:23.518Z,1.50
2024-05-09T19:11:53.682Z,1.60
2024-05-09T19:14:24.873Z,1.60
2024-05-09T19:16:55.305Z,1.60
2024-05-09T19:19:27.909Z,1.70
2024-05-09T19:21:59.146Z,1.30
2024-05-09T19:24:29.622Z,1.50
2024-05-09T19:27:01.625Z,1.40
2024-05-09T19:29:32.133Z,1.60
2024-05-09T19:32:02.606Z,1.50
2024-05-09T19:34:33.147Z,1.60
2024-05-09T19:37:03.851Z,1.50
2024-05-09T19:39:34.829Z,1.40
2024-05-09T19:42:06.358Z,1.50
2024-05-09T19:44:36.700Z,1.50
2024-05-09T19:47:08.012Z,1.60
2024-05-09T19:49:38.485Z,1.40
2024-05-09T19:52:09.092Z,1.30
2024-05-09T19:54:39.670Z,1.50
2024-05-09T19:57:10.072Z,1.40
2024-05-09T19:59:40.541Z,1.20
2024-05-09T20:02:11.190Z,1.10
2024-05-09T20:04:45.505Z,1.20
2024-05-09T20:07:16.349Z,1.10
2024-05-09T20:09:47.026Z,1.10
2024-05-09T20:12:17.429Z,1.00
2024-05-09T20:14:47.696Z,1.20
2024-05-09T20:17:18.127Z,1.00
2024-05-09T20:19:48.637Z,1.10
2024-05-09T20:22:19.364Z,1.20
2024-05-09T20:24:49.799Z,1.10
2024-05-09T20:27:20.877Z,1.10
2024-05-09T20:29:51.444Z,1.30
2024-05-09T20:32:21.843Z,1.10
2024-05-09T20:34:52.190Z,1.40
2024-05-09T20:37:22.990Z,2.90
2024-05-09T20:39:53.456Z,12.50
2024-05-09T20:42:23.631Z,16.40
2024-05-09T20:44:53.779Z,15.00
2024-05-09T20:47:24.317Z,12.00
2024-05-09T20:49:54.720Z,11.00
2024-05-09T20:52:25.046Z,7.50
2024-05-09T20:54:55.426Z,6.30
2024-05-09T20:57:26.089Z,3.70
2024-05-09T20:59:56.512Z,4.90
2024-05-09T21:02:27.299Z,4.90
2024-05-09T21:04:58.190Z,3.60
2024-05-09T21:07:28.715Z,4.90
2024-05-09T21:09:59.252Z,4.50
2024-05-09T21:12:29.782Z,3.80
2024-05-09T21:15:00.192Z,3.40
2024-05-09T21:17:30.680Z,2.10
2024-05-09T21:20:01.337Z,2.30
2024-05-09T21:22:31.857Z,3.10
2024-05-09T21:25:02.543Z,2.30
2024-05-09T21:27:34.352Z,1.70
2024-05-09T21:30:07.836Z,2.10
2024-05-09T21:32:41.271Z,2.00
2024-05-09T21:35:12.583Z,1.90
2024-05-09T21:37:43.164Z,1.60
2024-05-09T21:40:24.113Z,1.40
2024-05-09T21:43:01.324Z,1.30
2024-05-09T21:45:32.023Z,1.20
2024-05-09T21:48:03.827Z,1.10
2024-05-09T21:50:40.120Z,1.30
2024-05-09T21:53:13.573Z,1.20
2024-05-09T21:55:44.931Z,1.20
2024-05-09T21:58:15.961Z,1.10
2024-05-09T22:00:46.787Z,1.10
2024-05-09T22:03:17.634Z,1.00
2024-05-09T22:05:48.027Z,1.00
2024-05-09T22:08:18.960Z,1.10
2024-05-09T22:10:50.806Z,1.30
2024-05-09T22:13:21.410Z,1.20
2024-05-09T22:15:52.144Z,1.20
2024-05-09T22:18:22.606Z,1.60
2024-05-09T22:20:53.707Z,1.50
2024-05-09T22:23:24.194Z,1.40
2024-05-09T22:25:56.438Z,1.40
2024-05-09T22:28:26.953Z,1.70
2024-05-09T22:30:57.545Z,1.30
2024-05-09T22:33:28.131Z,1.30
2024-05-09T22:36:00.177Z,1.40
2024-05-09T22:38:30.702Z,2.10
2024-05-09T22:41:01.293Z,1.40
2024-05-09T22:43:32.100Z,1.50
2024-05-09T22:46:03.726Z,1.70
2024-05-09T22:48:34.246Z,1.50
2024-05-09T22:51:05.251Z,1.50
2024-05-09T22:53:35.684Z,1.70
2024-05-09T22:56:07.354Z,1.50
2024-05-09T22:58:37.853Z,1.20
2024-05-09T23:01:14.991Z,0.90
2024-05-09T23:03:45.891Z,1.10
2024-05-09T23:06:16.400Z,1.10
2024-05-09T23:08:46.622Z,1.20
2024-05-09T23:11:17.324Z,1.30
2024-05-09T23:13:47.878Z,1.20
2024-05-09T23:16:18.372Z,1.20
2024-05-09T23:18:48.869Z,1.10
2024-05-09T23:21:19.468Z,1.10
2024-05-09T23:23:49.859Z,1.10
2024-05-09T23:26:20.520Z,1.30
2024-05-09T23:28:51.231Z,1.10
2024-05-09T23:31:21.735Z,1.10
2024-05-09T23:33:54.618Z,1.30
2024-05-09T23:36:27.561Z,1.50
2024-05-09T23:38:58.374Z,1.60
2024-05-09T23:41:29.007Z,1.50
2024-05-09T23:43:59.329Z,1.40
2024-05-09T23:46:30.085Z,1.50
2024-05-09T23:49:00.714Z,1.40
2024-05-09T23:51:31.716Z,1.50
2024-05-09T23:54:02.170Z,1.40
2024-05-09T23:56:32.528Z,1.40
2024-05-09T23:59:02.915Z,1.50
